sensor_id;sensor_type;location;lat;lon;timestamp;pressure;altitude;pressure_sealevel;temperature;humidity
14232;BME280;7200;52.194;9.900;2023-06-14T00:02:16;99900.34;;;25.72;48.56
14232;BME280;7200;52.194;9.900;2023-06-14T00:04:41;99853.41;;;24.63;52.34
14232;BME280;7200;52.194;9.900;2023-06-14T00:07:07;99845.31;;;24.10;54.15
14232;BME280;7200;52.194;9.900;2023-06-14T00:09:35;100192.44;;;24.35;56.93
14232;BME280;7200;52.194;9.900;2023-06-14T00:12:00;99939.81;;;23.45;58.49
14232;BME280;7200;52.194;9.900;2023-06-14T00:14:26;100101.47;;;23.91;57.83
14232;BME280;7200;52.194;9.900;2023-06-14T00:16:51;100145.66;;;24.26;56.74
14232;BME280;7200;52.194;9.900;2023-06-14T00:19:18;99993.00;;;23.33;58.71
14232;BME280;7200;52.194;9.900;2023-06-14T00:21:44;99994.94;;;23.13;59.58
14232;BME280;7200;52.194;9.900;2023-06-14T00:24:10;99912.53;;;22.65;61.00
14232;BME280;7200;52.194;9.900;2023-06-14T00:26:36;99973.81;;;22.62;62.76
14232;BME280;7200;52.194;9.900;2023-06-14T00:29:01;100190.00;;;23.09;62.39
14232;BME280;7200;52.194;9.900;2023-06-14T00:31:26;99933.56;;;22.32;63.28
14232;BME280;7200;52.194;9.900;2023-06-14T00:33:52;100001.28;;;21.77;67.96
14232;BME280;7200;52.194;9.900;2023-06-14T00:36:17;100317.59;;;22.57;67.37
14232;BME280;7200;52.194;9.900;2023-06-14T00:38:42;100164.88;;;22.00;68.83
14232;BME280;7200;52.194;9.900;2023-06-14T00:41:08;100522.38;;;23.04;67.62
14232;BME280;7200;52.194;9.900;2023-06-14T00:43:33;100421.41;;;23.09;65.63
14232;BME280;7200;52.194;9.900;2023-06-14T00:46:00;100357.84;;;22.78;66.08
14232;BME280;7200;52.194;9.900;2023-06-14T00:48:25;100088.59;;;22.32;64.43
14232;BME280;7200;52.194;9.900;2023-06-14T00:50:51;100540.94;;;23.88;62.28
14232;BME280;7200;52.194;9.900;2023-06-14T00:53:18;100157.84;;;23.08;60.49
14232;BME280;7200;52.194;9.900;2023-06-14T00:55:43;100376.00;;;23.55;60.80
14232;BME280;7200;52.194;9.900;2023-06-14T00:58:09;100347.78;;;23.59;59.91
14232;BME280;7200;52.194;9.900;2023-06-14T01:00:35;100389.88;;;23.50;61.20
14232;BME280;7200;52.194;9.900;2023-06-14T01:03:01;100280.75;;;23.56;59.46
14232;BME280;7200;52.194;9.900;2023-06-14T01:05:26;100298.31;;;23.50;59.36
14232;BME280;7200;52.194;9.900;2023-06-14T01:08:05;100224.34;;;22.96;61.66
14232;BME280;7200;52.194;9.900;2023-06-14T01:15:57;100328.50;;;23.15;62.04
14232;BME280;7200;52.194;9.900;2023-06-14T01:18:22;100264.28;;;22.91;61.80
14232;BME280;7200;52.194;9.900;2023-06-14T01:20:49;100277.03;;;22.89;61.69
14232;BME280;7200;52.194;9.900;2023-06-14T01:23:19;100596.25;;;23.92;60.95
14232;BME280;7200;52.194;9.900;2023-06-14T01:25:45;100299.66;;;22.86;63.22
14232;BME280;7200;52.194;9.900;2023-06-14T01:28:13;100468.97;;;23.59;62.08
14232;BME280;7200;52.194;9.900;2023-06-14T01:30:42;100452.47;;;23.23;63.17
14232;BME280;7200;52.194;9.900;2023-06-14T01:33:14;100368.06;;;23.63;60.53
14232;BME280;7200;52.194;9.900;2023-06-14T01:35:43;100323.69;;;23.97;57.94
14232;BME280;7200;52.194;9.900;2023-06-14T01:38:09;100694.19;;;24.92;57.29
14232;BME280;7200;52.194;9.900;2023-06-14T01:40:34;100093.97;;;22.61;61.50
14232;BME280;7200;52.194;9.900;2023-06-14T01:43:01;100856.09;;;25.32;59.02
14232;BME280;7200;52.194;9.900;2023-06-14T01:45:28;100677.72;;;24.75;59.27
14232;BME280;7200;52.194;9.900;2023-06-14T01:47:54;100631.47;;;25.37;56.09
14232;BME280;7200;52.194;9.900;2023-06-14T01:50:20;100589.53;;;24.76;55.68
14232;BME280;7200;52.194;9.900;2023-06-14T01:52:46;100126.31;;;23.75;55.73
14232;BME280;7200;52.194;9.900;2023-06-14T01:55:11;100233.72;;;24.07;56.01
14232;BME280;7200;52.194;9.900;2023-06-14T01:57:36;101015.66;;;25.79;57.21
14232;BME280;7200;52.194;9.900;2023-06-14T02:00:03;100355.72;;;24.57;55.14
14232;BME280;7200;52.194;9.900;2023-06-14T02:02:29;100430.34;;;24.76;54.72
14232;BME280;7200;52.194;9.900;2023-06-14T02:04:54;100577.56;;;25.73;52.73
14232;BME280;7200;52.194;9.900;2023-06-14T02:07:22;100237.50;;;24.42;54.00
14232;BME280;7200;52.194;9.900;2023-06-14T02:09:47;100566.53;;;26.12;52.31
14232;BME280;7200;52.194;9.900;2023-06-14T02:12:12;100437.41;;;24.86;54.55
14232;BME280;7200;52.194;9.900;2023-06-14T02:14:38;100447.94;;;25.08;53.13
14232;BME280;7200;52.194;9.900;2023-06-14T02:17:03;100489.69;;;25.13;54.40
14232;BME280;7200;52.194;9.900;2023-06-14T02:19:29;100585.84;;;26.17;51.56
14232;BME280;7200;52.194;9.900;2023-06-14T02:21:54;100362.16;;;25.65;50.87
14232;BME280;7200;52.194;9.900;2023-06-14T02:24:19;100136.56;;;24.55;52.95
14232;BME280;7200;52.194;9.900;2023-06-14T02:26:45;100264.50;;;24.70;53.40
14232;BME280;7200;52.194;9.900;2023-06-14T02:29:10;100285.34;;;24.96;53.17
14232;BME280;7200;52.194;9.900;2023-06-14T02:31:37;100350.31;;;24.84;53.18
14232;BME280;7200;52.194;9.900;2023-06-14T02:34:03;99974.28;;;23.87;54.22
14232;BME280;7200;52.194;9.900;2023-06-14T02:36:28;99884.81;;;23.48;54.67
14232;BME280;7200;52.194;9.900;2023-06-14T02:38:55;100276.34;;;24.59;54.31
14232;BME280;7200;52.194;9.900;2023-06-14T02:41:23;100100.00;;;24.78;51.52
14232;BME280;7200;52.194;9.900;2023-06-14T02:43:48;100392.72;;;25.83;51.63
14232;BME280;7200;52.194;9.900;2023-06-14T02:46:13;100453.66;;;25.32;53.77
14232;BME280;7200;52.194;9.900;2023-06-14T02:48:39;100138.66;;;24.33;55.04
14232;BME280;7200;52.194;9.900;2023-06-14T02:51:05;100191.19;;;24.29;55.10
14232;BME280;7200;52.194;9.900;2023-06-14T02:53:31;100532.53;;;24.98;55.49
14232;BME280;7200;52.194;9.900;2023-06-14T02:55:57;99828.34;;;23.56;52.72
14232;BME280;7200;52.194;9.900;2023-06-14T02:58:23;100105.97;;;23.63;55.90
14232;BME280;7200;52.194;9.900;2023-06-14T03:00:50;100432.94;;;24.95;54.78
14232;BME280;7200;52.194;9.900;2023-06-14T03:03:17;100315.28;;;24.47;54.76
14232;BME280;7200;52.194;9.900;2023-06-14T03:05:44;100258.03;;;23.78;56.92
14232;BME280;7200;52.194;9.900;2023-06-14T03:08:15;100304.69;;;24.91;53.43
14232;BME280;7200;52.194;9.900;2023-06-14T03:10:42;99540.53;;;21.57;58.03
14232;BME280;7200;52.194;9.900;2023-06-14T03:13:08;100074.28;;;22.22;63.64
14232;BME280;7200;52.194;9.900;2023-06-14T03:15:33;100220.94;;;22.94;61.49
14232;BME280;7200;52.194;9.900;2023-06-14T03:17:58;100124.69;;;22.78;61.67
14232;BME280;7200;52.194;9.900;2023-06-14T03:20:26;100297.09;;;22.85;63.25
14232;BME280;7200;52.194;9.900;2023-06-14T03:25:19;100108.84;;;23.04;59.84
14232;BME280;7200;52.194;9.900;2023-06-14T03:27:46;100242.78;;;23.49;58.75
14232;BME280;7200;52.194;9.900;2023-06-14T03:30:12;100186.25;;;23.30;57.96
14232;BME280;7200;52.194;9.900;2023-06-14T03:32:37;99971.25;;;22.80;57.80
14232;BME280;7200;52.194;9.900;2023-06-14T03:35:03;100633.75;;;25.41;55.93
14232;BME280;7200;52.194;9.900;2023-06-14T03:37:28;100290.72;;;24.13;56.52
14232;BME280;7200;52.194;9.900;2023-06-14T03:39:53;100532.88;;;25.23;55.25
14232;BME280;7200;52.194;9.900;2023-06-14T03:42:19;100461.13;;;24.83;55.25
14232;BME280;7200;52.194;9.900;2023-06-14T03:44:44;100562.16;;;25.83;51.86
14232;BME280;7200;52.194;9.900;2023-06-14T03:47:09;100535.66;;;25.87;51.92
14232;BME280;7200;52.194;9.900;2023-06-14T03:49:35;101754.84;;;30.05;52.34
14232;BME280;7200;52.194;9.900;2023-06-14T03:52:00;100275.09;;;24.81;53.67
14232;BME280;7200;52.194;9.900;2023-06-14T03:54:27;100031.28;;;23.27;58.10
14232;BME280;7200;52.194;9.900;2023-06-14T03:56:53;100162.31;;;22.98;61.10
14232;BME280;7200;52.194;9.900;2023-06-14T03:59:19;100289.97;;;23.54;60.66
14232;BME280;7200;52.194;9.900;2023-06-14T04:01:45;100546.09;;;24.59;59.49
14232;BME280;7200;52.194;9.900;2023-06-14T04:04:11;100598.81;;;25.20;56.94
14232;BME280;7200;52.194;9.900;2023-06-14T04:06:37;100552.38;;;25.54;54.60
14232;BME280;7200;52.194;9.900;2023-06-14T04:09:02;100854.91;;;26.78;53.42
14232;BME280;7200;52.194;9.900;2023-06-14T04:11:28;100608.41;;;26.97;49.94
14232;BME280;7200;52.194;9.900;2023-06-14T04:13:53;100111.09;;;25.72;49.93
14232;BME280;7200;52.194;9.900;2023-06-14T04:16:21;100620.22;;;27.23;50.29
14232;BME280;7200;52.194;9.900;2023-06-14T04:18:46;100398.41;;;26.42;49.94
14232;BME280;7200;52.194;9.900;2023-06-14T04:21:13;100190.22;;;26.16;49.22
14232;BME280;7200;52.194;9.900;2023-06-14T04:23:38;100259.31;;;26.53;49.23
14232;BME280;7200;52.194;9.900;2023-06-14T04:26:04;100401.50;;;26.82;50.02
14232;BME280;7200;52.194;9.900;2023-06-14T04:28:29;100264.28;;;26.66;48.65
14232;BME280;7200;52.194;9.900;2023-06-14T04:30:55;100061.81;;;26.61;47.71
14232;BME280;7200;52.194;9.900;2023-06-14T04:33:21;100572.38;;;28.25;45.79
14232;BME280;7200;52.194;9.900;2023-06-14T04:35:48;100950.56;;;28.84;48.59
14232;BME280;7200;52.194;9.900;2023-06-14T04:38:13;100404.91;;;26.84;50.57
14232;BME280;7200;52.194;9.900;2023-06-14T04:40:41;100424.78;;;27.35;49.19
14232;BME280;7200;52.194;9.900;2023-06-14T04:43:10;100379.75;;;27.51;48.81
14232;BME280;7200;52.194;9.900;2023-06-14T04:45:42;100232.53;;;26.93;48.68
14232;BME280;7200;52.194;9.900;2023-06-14T04:48:10;100998.56;;;28.76;50.71
14232;BME280;7200;52.194;9.900;2023-06-14T04:50:35;100269.50;;;27.60;47.43
14232;BME280;7200;52.194;9.900;2023-06-14T04:53:00;100193.44;;;26.95;48.98
14232;BME280;7200;52.194;9.900;2023-06-14T04:55:26;100878.31;;;28.91;48.98
14232;BME280;7200;52.194;9.900;2023-06-14T04:57:51;100319.94;;;27.85;47.31
14232;BME280;7200;52.194;9.900;2023-06-14T05:00:19;100101.09;;;27.63;46.17
14232;BME280;7200;52.194;9.900;2023-06-14T05:02:44;100222.56;;;28.63;44.40
14232;BME280;7200;52.194;9.900;2023-06-14T05:05:10;100058.25;;;28.29;45.90
14232;BME280;7200;52.194;9.900;2023-06-14T05:07:36;98993.41;;;19.11;72.73
14232;BME280;7200;52.194;9.900;2023-06-14T05:10:02;99526.09;;;17.96;95.38
14232;BME280;7200;52.194;9.900;2023-06-14T05:12:27;99773.97;;;17.65;100.00
14232;BME280;7200;52.194;9.900;2023-06-14T05:14:54;100037.09;;;17.66;100.00
14232;BME280;7200;52.194;9.900;2023-06-14T05:17:19;100173.59;;;17.60;100.00
14232;BME280;7200;52.194;9.900;2023-06-14T05:19:45;100262.03;;;17.80;100.00
14232;BME280;7200;52.194;9.900;2023-06-14T05:22:11;100333.72;;;17.86;100.00
14232;BME280;7200;52.194;9.900;2023-06-14T05:24:36;100379.03;;;17.73;100.00
14232;BME280;7200;52.194;9.900;2023-06-14T05:27:01;100482.47;;;17.55;100.00
14232;BME280;7200;52.194;9.900;2023-06-14T05:29:27;100409.66;;;16.99;100.00
14232;BME280;7200;52.194;9.900;2023-06-14T05:31:52;100466.00;;;16.92;100.00
14232;BME280;7200;52.194;9.900;2023-06-14T05:34:18;100569.47;;;17.29;100.00
14232;BME280;7200;52.194;9.900;2023-06-14T05:36:43;100558.34;;;17.22;100.00
14232;BME280;7200;52.194;9.900;2023-06-14T05:39:08;100573.78;;;17.31;100.00
14232;BME280;7200;52.194;9.900;2023-06-14T05:41:34;100552.16;;;17.07;100.00
14232;BME280;7200;52.194;9.900;2023-06-14T05:44:01;100688.66;;;17.71;100.00
14232;BME280;7200;52.194;9.900;2023-06-14T05:46:26;100637.50;;;17.36;100.00
14232;BME280;7200;52.194;9.900;2023-06-14T05:48:52;100665.59;;;17.42;100.00
14232;BME280;7200;52.194;9.900;2023-06-14T05:51:17;100689.34;;;17.46;100.00
14232;BME280;7200;52.194;9.900;2023-06-14T05:53:46;100710.78;;;17.74;100.00
14232;BME280;7200;52.194;9.900;2023-06-14T05:56:12;100708.47;;;17.82;100.00
14232;BME280;7200;52.194;9.900;2023-06-14T05:58:37;100754.09;;;18.07;100.00
14232;BME280;7200;52.194;9.900;2023-06-14T06:01:03;100719.56;;;18.19;100.00
14232;BME280;7200;52.194;9.900;2023-06-14T06:03:28;100706.50;;;17.85;100.00
14232;BME280;7200;52.194;9.900;2023-06-14T06:05:54;100670.66;;;17.75;100.00
14232;BME280;7200;52.194;9.900;2023-06-14T06:08:20;100726.53;;;17.78;100.00
14232;BME280;7200;52.194;9.900;2023-06-14T06:10:45;100786.78;;;17.97;100.00
14232;BME280;7200;52.194;9.900;2023-06-14T06:13:11;100825.44;;;18.20;100.00
14232;BME280;7200;52.194;9.900;2023-06-14T06:15:36;100775.06;;;18.14;100.00
14232;BME280;7200;52.194;9.900;2023-06-14T06:18:01;100751.88;;;17.85;100.00
14232;BME280;7200;52.194;9.900;2023-06-14T06:20:27;100811.19;;;18.19;100.00
14232;BME280;7200;52.194;9.900;2023-06-14T06:22:57;100746.72;;;17.97;100.00
14232;BME280;7200;52.194;9.900;2023-06-14T06:25:23;100785.44;;;18.04;100.00
14232;BME280;7200;52.194;9.900;2023-06-14T06:27:51;100801.19;;;17.94;100.00
14232;BME280;7200;52.194;9.900;2023-06-14T06:30:16;100882.19;;;18.38;100.00
14232;BME280;7200;52.194;9.900;2023-06-14T06:32:41;100849.81;;;18.57;100.00
14232;BME280;7200;52.194;9.900;2023-06-14T06:35:07;100856.69;;;18.61;100.00
14232;BME280;7200;52.194;9.900;2023-06-14T06:37:34;100775.22;;;18.25;100.00
14232;BME280;7200;52.194;9.900;2023-06-14T06:39:59;100792.63;;;18.18;100.00
14232;BME280;7200;52.194;9.900;2023-06-14T06:42:25;100855.47;;;18.38;100.00
14232;BME280;7200;52.194;9.900;2023-06-14T06:44:50;100871.69;;;18.63;100.00
14232;BME280;7200;52.194;9.900;2023-06-14T06:47:15;100861.16;;;18.75;100.00
14232;BME280;7200;52.194;9.900;2023-06-14T06:49:41;100826.03;;;18.81;100.00
14232;BME280;7200;52.194;9.900;2023-06-14T06:52:06;100867.38;;;18.90;100.00
14232;BME280;7200;52.194;9.900;2023-06-14T06:54:33;100871.72;;;19.05;100.00
14232;BME280;7200;52.194;9.900;2023-06-14T06:56:58;100899.56;;;19.15;100.00
14232;BME280;7200;52.194;9.900;2023-06-14T06:59:24;100877.38;;;19.28;100.00
14232;BME280;7200;52.194;9.900;2023-06-14T07:01:50;100808.06;;;18.97;100.00
14232;BME280;7200;52.194;9.900;2023-06-14T07:04:15;100853.44;;;19.12;100.00
14232;BME280;7200;52.194;9.900;2023-06-14T07:06:42;100893.84;;;19.49;100.00
14232;BME280;7200;52.194;9.900;2023-06-14T07:09:07;100893.50;;;19.53;100.00
14232;BME280;7200;52.194;9.900;2023-06-14T07:11:37;100863.78;;;19.58;100.00
14232;BME280;7200;52.194;9.900;2023-06-14T07:14:02;100903.69;;;19.75;100.00
14232;BME280;7200;52.194;9.900;2023-06-14T07:16:27;100906.41;;;19.88;100.00
14232;BME280;7200;52.194;9.900;2023-06-14T07:18:53;100889.47;;;20.13;100.00
14232;BME280;7200;52.194;9.900;2023-06-14T07:21:18;100813.63;;;20.13;100.00
14232;BME280;7200;52.194;9.900;2023-06-14T07:23:43;100777.22;;;19.97;100.00
14232;BME280;7200;52.194;9.900;2023-06-14T07:26:09;100805.38;;;20.16;100.00
14232;BME280;7200;52.194;9.900;2023-06-14T07:28:34;100761.16;;;19.84;100.00
14232;BME280;7200;52.194;9.900;2023-06-14T07:30:59;100788.97;;;19.69;100.00
14232;BME280;7200;52.194;9.900;2023-06-14T07:33:25;100827.78;;;19.76;100.00
14232;BME280;7200;52.194;9.900;2023-06-14T07:35:50;100807.16;;;19.64;100.00
14232;BME280;7200;52.194;9.900;2023-06-14T07:38:17;100893.25;;;20.11;100.00
14232;BME280;7200;52.194;9.900;2023-06-14T07:40:42;100946.97;;;20.48;100.00
14232;BME280;7200;52.194;9.900;2023-06-14T07:43:08;100930.56;;;20.78;100.00
14232;BME280;7200;52.194;9.900;2023-06-14T07:45:33;100817.88;;;20.41;100.00
14232;BME280;7200;52.194;9.900;2023-06-14T07:47:58;100832.69;;;20.21;100.00
14232;BME280;7200;52.194;9.900;2023-06-14T07:50:23;100911.13;;;20.49;100.00
14232;BME280;7200;52.194;9.900;2023-06-14T07:52:49;100900.53;;;20.60;100.00
14232;BME280;7200;52.194;9.900;2023-06-14T07:55:14;100912.44;;;20.69;100.00
14232;BME280;7200;52.194;9.900;2023-06-14T07:57:40;100895.91;;;20.88;100.00
14232;BME280;7200;52.194;9.900;2023-06-14T08:00:06;100847.69;;;20.62;100.00
14232;BME280;7200;52.194;9.900;2023-06-14T08:02:31;100904.69;;;20.77;100.00
14232;BME280;7200;52.194;9.900;2023-06-14T08:04:57;100869.94;;;20.88;100.00
14232;BME280;7200;52.194;9.900;2023-06-14T08:07:23;100860.25;;;20.98;100.00
14232;BME280;7200;52.194;9.900;2023-06-14T08:09:49;100823.59;;;20.86;100.00
14232;BME280;7200;52.194;9.900;2023-06-14T08:12:14;100853.47;;;20.69;100.00
14232;BME280;7200;52.194;9.900;2023-06-14T08:14:39;100852.63;;;20.68;100.00
14232;BME280;7200;52.194;9.900;2023-06-14T08:17:05;100881.00;;;20.84;100.00
14232;BME280;7200;52.194;9.900;2023-06-14T08:19:30;100913.84;;;21.11;100.00
14232;BME280;7200;52.194;9.900;2023-06-14T08:21:56;100822.22;;;20.80;100.00
14232;BME280;7200;52.194;9.900;2023-06-14T08:24:22;100814.09;;;20.69;100.00
14232;BME280;7200;52.194;9.900;2023-06-14T08:26:52;100835.50;;;20.82;100.00
14232;BME280;7200;52.194;9.900;2023-06-14T08:29:18;100851.50;;;20.84;100.00
14232;BME280;7200;52.194;9.900;2023-06-14T08:31:43;100876.69;;;21.18;100.00
14232;BME280;7200;52.194;9.900;2023-06-14T08:34:08;100770.94;;;20.85;100.00
14232;BME280;7200;52.194;9.900;2023-06-14T08:36:35;100838.91;;;21.21;98.23
14232;BME280;7200;52.194;9.900;2023-06-14T08:39:00;100882.78;;;21.57;96.33
14232;BME280;7200;52.194;9.900;2023-06-14T08:41:27;100794.06;;;21.34;95.47
14232;BME280;7200;52.194;9.900;2023-06-14T08:43:54;100808.34;;;21.59;92.62
14232;BME280;7200;52.194;9.900;2023-06-14T08:46:20;100776.47;;;21.30;96.31
14232;BME280;7200;52.194;9.900;2023-06-14T08:48:51;100856.56;;;21.61;95.44
14232;BME280;7200;52.194;9.900;2023-06-14T08:51:20;100759.94;;;21.12;97.50
14232;BME280;7200;52.194;9.900;2023-06-14T08:53:52;100788.97;;;21.43;93.79
14232;BME280;7200;52.194;9.900;2023-06-14T08:56:18;100858.94;;;21.52;98.42
14232;BME280;7200;52.194;9.900;2023-06-14T08:58:46;100809.16;;;21.48;96.36
14232;BME280;7200;52.194;9.900;2023-06-14T09:01:13;100800.53;;;21.67;93.07
14232;BME280;7200;52.194;9.900;2023-06-14T09:03:40;100808.19;;;21.49;96.70
14232;BME280;7200;52.194;9.900;2023-06-14T09:06:07;100800.56;;;21.78;90.10
14232;BME280;7200;52.194;9.900;2023-06-14T09:08:34;100819.91;;;22.06;88.10
14232;BME280;7200;52.194;9.900;2023-06-14T09:11:01;100810.97;;;21.94;91.66
14232;BME280;7200;52.194;9.900;2023-06-14T09:13:27;100838.09;;;22.14;91.94
14232;BME280;7200;52.194;9.900;2023-06-14T09:15:52;100834.69;;;22.12;91.51
14232;BME280;7200;52.194;9.900;2023-06-14T09:18:17;100754.56;;;21.83;90.17
14232;BME280;7200;52.194;9.900;2023-06-14T09:20:45;100807.19;;;22.20;87.45
14232;BME280;7200;52.194;9.900;2023-06-14T09:23:12;100778.75;;;22.17;88.02
14232;BME280;7200;52.194;9.900;2023-06-14T09:25:42;100766.38;;;22.14;87.93
14232;BME280;7200;52.194;9.900;2023-06-14T09:28:07;100836.28;;;22.26;90.08
14232;BME280;7200;52.194;9.900;2023-06-14T09:30:33;100865.00;;;22.82;84.78
14232;BME280;7200;52.194;9.900;2023-06-14T09:32:59;100811.94;;;22.72;84.92
14232;BME280;7200;52.194;9.900;2023-06-14T09:35:24;100747.34;;;22.40;86.77
14232;BME280;7200;52.194;9.900;2023-06-14T09:37:50;100777.50;;;22.66;84.21
14232;BME280;7200;52.194;9.900;2023-06-14T09:40:20;100765.78;;;22.88;80.57
14232;BME280;7200;52.194;9.900;2023-06-14T09:42:46;100733.19;;;22.82;80.16
14232;BME280;7200;52.194;9.900;2023-06-14T09:45:11;100729.50;;;22.83;80.78
14232;BME280;7200;52.194;9.900;2023-06-14T09:47:38;100713.06;;;22.97;77.61
14232;BME280;7200;52.194;9.900;2023-06-14T09:50:04;100688.59;;;23.00;76.42
14232;BME280;7200;52.194;9.900;2023-06-14T09:52:29;100716.75;;;22.85;82.66
14232;BME280;7200;52.194;9.900;2023-06-14T09:54:58;100686.06;;;22.66;84.38
14232;BME280;7200;52.194;9.900;2023-06-14T09:57:25;100723.25;;;22.82;83.48
14232;BME280;7200;52.194;9.900;2023-06-14T09:59:54;100639.59;;;22.64;81.24
14232;BME280;7200;52.194;9.900;2023-06-14T10:02:25;100647.97;;;22.50;82.63
14232;BME280;7200;52.194;9.900;2023-06-14T10:04:58;100712.34;;;22.63;84.64
14232;BME280;7200;52.194;9.900;2023-06-14T10:07:26;100717.69;;;22.74;84.20
14232;BME280;7200;52.194;9.900;2023-06-14T10:09:55;100677.34;;;22.74;82.68
14232;BME280;7200;52.194;9.900;2023-06-14T10:12:21;100698.22;;;22.82;83.30
14232;BME280;7200;52.194;9.900;2023-06-14T10:14:51;100704.78;;;22.89;81.99
14232;BME280;7200;52.194;9.900;2023-06-14T10:20:06;100732.53;;;23.22;80.24
14232;BME280;7200;52.194;9.900;2023-06-14T10:22:44;100732.09;;;23.38;77.88
14232;BME280;7200;52.194;9.900;2023-06-14T10:25:13;100635.59;;;23.12;77.14
14232;BME280;7200;52.194;9.900;2023-06-14T10:27:51;100683.56;;;23.28;78.00
14232;BME280;7200;52.194;9.900;2023-06-14T10:30:16;100668.03;;;23.41;76.71
14232;BME280;7200;52.194;9.900;2023-06-14T10:33:06;100761.06;;;23.87;75.87
14232;BME280;7200;52.194;9.900;2023-06-14T10:35:32;100673.84;;;23.88;71.13
14232;BME280;7200;52.194;9.900;2023-06-14T10:38:08;100711.81;;;23.85;75.60
14232;BME280;7200;52.194;9.900;2023-06-14T10:40:34;100780.16;;;24.05;78.42
14232;BME280;7200;52.194;9.900;2023-06-14T10:42:59;100686.63;;;23.96;74.73
14232;BME280;7200;52.194;9.900;2023-06-14T10:45:24;100675.69;;;23.98;75.49
14232;BME280;7200;52.194;9.900;2023-06-14T10:47:50;100784.28;;;24.50;74.07
14232;BME280;7200;52.194;9.900;2023-06-14T10:50:27;100724.13;;;24.59;72.90
14232;BME280;7200;52.194;9.900;2023-06-14T10:52:53;100725.16;;;24.68;72.42
14232;BME280;7200;52.194;9.900;2023-06-14T10:55:18;100713.38;;;24.98;68.96
14232;BME280;7200;52.194;9.900;2023-06-14T10:57:51;100657.81;;;24.96;68.11
14232;BME280;7200;52.194;9.900;2023-06-14T11:00:25;100634.81;;;24.72;70.12
14232;BME280;7200;52.194;9.900;2023-06-14T11:05:52;100632.81;;;24.94;68.80
14232;BME280;7200;52.194;9.900;2023-06-14T11:11:09;100523.09;;;24.26;71.45
14232;BME280;7200;52.194;9.900;2023-06-14T11:13:41;100543.94;;;24.14;73.15
14232;BME280;7200;52.194;9.900;2023-06-14T11:16:15;100642.06;;;24.52;73.21
14232;BME280;7200;52.194;9.900;2023-06-14T11:18:42;100647.16;;;24.75;71.47
14232;BME280;7200;52.194;9.900;2023-06-14T11:21:08;100570.63;;;24.46;72.05
14232;BME280;7200;52.194;9.900;2023-06-14T11:23:34;100615.94;;;24.82;68.96
14232;BME280;7200;52.194;9.900;2023-06-14T11:26:00;100604.59;;;24.59;72.86
14232;BME280;7200;52.194;9.900;2023-06-14T11:28:35;100609.81;;;24.80;71.35
14232;BME280;7200;52.194;9.900;2023-06-14T11:31:02;100536.16;;;24.70;69.46
14232;BME280;7200;52.194;9.900;2023-06-14T11:33:28;100548.03;;;24.77;69.16
14232;BME280;7200;52.194;9.900;2023-06-14T11:35:53;100527.75;;;24.73;69.20
14232;BME280;7200;52.194;9.900;2023-06-14T11:38:19;100490.16;;;24.61;67.98
14232;BME280;7200;52.194;9.900;2023-06-14T11:40:44;100531.44;;;24.62;71.06
14232;BME280;7200;52.194;9.900;2023-06-14T11:43:09;100491.84;;;24.43;71.34
14232;BME280;7200;52.194;9.900;2023-06-14T11:45:35;100513.13;;;24.46;71.47
14232;BME280;7200;52.194;9.900;2023-06-14T11:48:00;100636.81;;;24.80;73.28
14232;BME280;7200;52.194;9.900;2023-06-14T11:50:27;100705.69;;;25.23;72.65
14232;BME280;7200;52.194;9.900;2023-06-14T11:52:57;100570.97;;;25.10;68.42
14232;BME280;7200;52.194;9.900;2023-06-14T11:55:28;100540.38;;;24.82;69.95
14232;BME280;7200;52.194;9.900;2023-06-14T11:57:54;100655.88;;;25.55;66.02
14232;BME280;7200;52.194;9.900;2023-06-14T12:00:24;100565.38;;;25.31;66.06
14232;BME280;7200;52.194;9.900;2023-06-14T12:02:54;100536.44;;;25.23;65.42
14232;BME280;7200;52.194;9.900;2023-06-14T12:05:21;100493.72;;;24.99;67.77
14232;BME280;7200;52.194;9.900;2023-06-14T12:07:47;100490.31;;;24.97;67.83
14232;BME280;7200;52.194;9.900;2023-06-14T12:10:14;100466.66;;;24.81;68.54
14232;BME280;7200;52.194;9.900;2023-06-14T12:12:40;100572.56;;;25.03;70.20
14232;BME280;7200;52.194;9.900;2023-06-14T12:15:08;100591.41;;;25.22;70.41
14232;BME280;7200;52.194;9.900;2023-06-14T12:17:35;100472.63;;;24.85;69.38
14232;BME280;7200;52.194;9.900;2023-06-14T12:20:05;100546.16;;;24.97;71.28
14232;BME280;7200;52.194;9.900;2023-06-14T12:22:56;100521.63;;;24.80;72.83
14232;BME280;7200;52.194;9.900;2023-06-14T12:25:36;100390.38;;;24.42;70.73
14232;BME280;7200;52.194;9.900;2023-06-14T12:28:06;100552.91;;;24.54;75.12
14232;BME280;7200;52.194;9.900;2023-06-14T12:30:33;100644.88;;;24.99;75.39
14232;BME280;7200;52.194;9.900;2023-06-14T12:32:58;100685.22;;;25.30;74.73
14232;BME280;7200;52.194;9.900;2023-06-14T12:35:23;100713.72;;;25.62;72.61
14232;BME280;7200;52.194;9.900;2023-06-14T12:37:49;100796.88;;;26.25;72.26
14232;BME280;7200;52.194;9.900;2023-06-14T12:40:14;100775.56;;;26.77;67.99
14232;BME280;7200;52.194;9.900;2023-06-14T12:42:40;100584.28;;;26.50;64.71
14232;BME280;7200;52.194;9.900;2023-06-14T12:45:06;100590.94;;;26.20;66.71
14232;BME280;7200;52.194;9.900;2023-06-14T12:47:31;100575.13;;;26.61;59.69
14232;BME280;7200;52.194;9.900;2023-06-14T12:49:57;100471.25;;;26.36;59.16
14232;BME280;7200;52.194;9.900;2023-06-14T12:52:24;100300.38;;;25.26;63.71
14232;BME280;7200;52.194;9.900;2023-06-14T12:54:49;100412.22;;;25.23;66.94
14232;BME280;7200;52.194;9.900;2023-06-14T12:57:15;100540.41;;;25.75;66.16
14232;BME280;7200;52.194;9.900;2023-06-14T12:59:40;100470.38;;;25.45;68.20
14232;BME280;7200;52.194;9.900;2023-06-14T13:02:16;100623.44;;;25.92;69.84
14232;BME280;7200;52.194;9.900;2023-06-14T13:04:42;100550.13;;;25.95;66.89
14232;BME280;7200;52.194;9.900;2023-06-14T13:07:08;100537.84;;;26.01;66.60
14232;BME280;7200;52.194;9.900;2023-06-14T13:09:33;100558.56;;;26.10;68.36
14232;BME280;7200;52.194;9.900;2023-06-14T13:11:59;100621.94;;;26.26;68.64